sensor_id;sensor_type;location;lat;lon;timestamp;P1;durP1;ratioP1;P2;durP2;ratioP2
77417;SDS011;66490;51.484;0.026;2024-03-02T00:02:47;3.85;;;1.15;;
77417;SDS011;66490;51.484;0.026;2024-03-02T00:05:52;4.20;;;1.00;;
77417;SDS011;66490;51.484;0.026;2024-03-02T00:09:17;4.90;;;0.82;;
77417;SDS011;66490;51.484;0.026;2024-03-02T00:12:06;4.22;;;1.17;;
77417;SDS011;66490;51.484;0.026;2024-03-02T00:14:53;6.60;;;1.13;;
77417;SDS011;66490;51.484;0.026;2024-03-02T00:17:37;5.50;;;1.20;;
77417;SDS011;66490;51.484;0.026;2024-03-02T00:20:22;4.37;;;1.13;;
77417;SDS011;66490;51.484;0.026;2024-03-02T00:23:10;5.03;;;0.93;;
77417;SDS011;66490;51.484;0.026;2024-03-02T00:26:05;4.75;;;1.13;;
77417;SDS011;66490;51.484;0.026;2024-03-02T00:28:54;5.22;;;0.85;;
77417;SDS011;66490;51.484;0.026;2024-03-02T00:31:39;4.78;;;1.58;;
77417;SDS011;66490;51.484;0.026;2024-03-02T00:34:29;4.87;;;1.00;;
77417;SDS011;66490;51.484;0.026;2024-03-02T00:37:13;4.65;;;1.40;;
77417;SDS011;66490;51.484;0.026;2024-03-02T00:40:01;7.95;;;1.85;;
77417;SDS011;66490;51.484;0.026;2024-03-02T00:42:51;6.80;;;1.40;;
77417;SDS011;66490;51.484;0.026;2024-03-02T00:45:39;5.43;;;1.85;;
77417;SDS011;66490;51.484;0.026;2024-03-02T00:48:23;6.93;;;1.30;;
77417;SDS011;66490;51.484;0.026;2024-03-02T00:51:09;6.20;;;1.60;;
77417;SDS011;66490;51.484;0.026;2024-03-02T00:54:04;7.40;;;1.90;;
77417;SDS011;66490;51.484;0.026;2024-03-02T00:56:49;8.20;;;1.27;;
77417;SDS011;66490;51.484;0.026;2024-03-02T00:59:36;6.05;;;1.58;;
77417;SDS011;66490;51.484;0.026;2024-03-02T01:02:20;5.23;;;0.90;;
77417;SDS011;66490;51.484;0.026;2024-03-02T01:05:07;7.63;;;1.45;;
77417;SDS011;66490;51.484;0.026;2024-03-02T01:08:10;6.88;;;1.73;;
77417;SDS011;66490;51.484;0.026;2024-03-02T01:10:54;8.73;;;1.67;;
77417;SDS011;66490;51.484;0.026;2024-03-02T01:13:46;6.13;;;1.67;;
77417;SDS011;66490;51.484;0.026;2024-03-02T01:16:30;6.80;;;1.33;;
77417;SDS011;66490;51.484;0.026;2024-03-02T01:19:14;11.75;;;1.33;;
77417;SDS011;66490;51.484;0.026;2024-03-02T01:22:11;13.50;;;1.60;;
77417;SDS011;66490;51.484;0.026;2024-03-02T01:24:58;12.57;;;1.15;;
77417;SDS011;66490;51.484;0.026;2024-03-02T01:27:41;8.95;;;1.33;;
77417;SDS011;66490;51.484;0.026;2024-03-02T01:30:25;9.10;;;0.80;;
77417;SDS011;66490;51.484;0.026;2024-03-02T01:33:09;7.13;;;0.88;;
77417;SDS011;66490;51.484;0.026;2024-03-02T01:36:05;6.50;;;0.80;;
77417;SDS011;66490;51.484;0.026;2024-03-02T01:41:54;7.22;;;1.05;;
77417;SDS011;66490;51.484;0.026;2024-03-02T01:44:39;7.60;;;0.67;;
77417;SDS011;66490;51.484;0.026;2024-03-02T01:47:50;5.57;;;1.02;;
77417;SDS011;66490;51.484;0.026;2024-03-02T01:50:47;8.35;;;1.05;;
77417;SDS011;66490;51.484;0.026;2024-03-02T01:53:32;5.93;;;1.05;;
77417;SDS011;66490;51.484;0.026;2024-03-02T01:56:19;9.40;;;1.45;;
77417;SDS011;66490;51.484;0.026;2024-03-02T01:59:25;11.20;;;1.03;;
77417;SDS011;66490;51.484;0.026;2024-03-02T02:02:22;7.93;;;1.00;;
77417;SDS011;66490;51.484;0.026;2024-03-02T02:05:06;10.02;;;1.08;;
77417;SDS011;66490;51.484;0.026;2024-03-02T02:07:59;7.47;;;1.02;;
77417;SDS011;66490;51.484;0.026;2024-03-02T02:10:55;10.07;;;1.48;;
77417;SDS011;66490;51.484;0.026;2024-03-02T02:13:46;6.57;;;0.80;;
77417;SDS011;66490;51.484;0.026;2024-03-02T02:16:41;7.65;;;0.82;;
77417;SDS011;66490;51.484;0.026;2024-03-02T02:19:36;7.78;;;0.65;;
77417;SDS011;66490;51.484;0.026;2024-03-02T02:22:23;11.63;;;1.08;;
77417;SDS011;66490;51.484;0.026;2024-03-02T02:25:14;5.78;;;1.63;;
77417;SDS011;66490;51.484;0.026;2024-03-02T02:27:58;9.93;;;1.63;;
77417;SDS011;66490;51.484;0.026;2024-03-02T02:30:45;12.45;;;1.50;;
77417;SDS011;66490;51.484;0.026;2024-03-02T02:33:29;12.57;;;1.30;;
77417;SDS011;66490;51.484;0.026;2024-03-02T02:36:13;7.10;;;1.20;;
77417;SDS011;66490;51.484;0.026;2024-03-02T02:39:13;9.00;;;1.48;;
77417;SDS011;66490;51.484;0.026;2024-03-02T02:42:04;10.43;;;1.40;;
77417;SDS011;66490;51.484;0.026;2024-03-02T02:45:10;7.10;;;0.68;;
77417;SDS011;66490;51.484;0.026;2024-03-02T02:47:57;8.23;;;1.77;;
77417;SDS011;66490;51.484;0.026;2024-03-02T02:50:41;16.42;;;1.00;;
77417;SDS011;66490;51.484;0.026;2024-03-02T02:53:33;8.27;;;0.75;;
77417;SDS011;66490;51.484;0.026;2024-03-02T02:56:33;14.90;;;1.20;;
77417;SDS011;66490;51.484;0.026;2024-03-02T02:59:40;14.63;;;1.30;;
77417;SDS011;66490;51.484;0.026;2024-03-02T03:02:24;12.27;;;1.40;;
77417;SDS011;66490;51.484;0.026;2024-03-02T03:05:11;8.55;;;0.90;;
77417;SDS011;66490;51.484;0.026;2024-03-02T03:08:19;7.32;;;1.40;;
77417;SDS011;66490;51.484;0.026;2024-03-02T03:11:11;6.47;;;1.10;;
77417;SDS011;66490;51.484;0.026;2024-03-02T03:13:58;11.00;;;1.17;;
77417;SDS011;66490;51.484;0.026;2024-03-02T03:16:54;7.95;;;0.98;;
77417;SDS011;66490;51.484;0.026;2024-03-02T03:19:43;8.80;;;1.45;;
77417;SDS011;66490;51.484;0.026;2024-03-02T03:22:38;10.75;;;1.55;;
77417;SDS011;66490;51.484;0.026;2024-03-02T03:25:33;15.03;;;1.30;;
77417;SDS011;66490;51.484;0.026;2024-03-02T03:28:22;8.45;;;0.98;;
77417;SDS011;66490;51.484;0.026;2024-03-02T03:31:29;9.25;;;0.75;;
77417;SDS011;66490;51.484;0.026;2024-03-02T03:34:19;9.73;;;1.80;;
77417;SDS011;66490;51.484;0.026;2024-03-02T03:37:06;9.43;;;1.67;;
77417;SDS011;66490;51.484;0.026;2024-03-02T03:39:59;7.27;;;0.90;;
77417;SDS011;66490;51.484;0.026;2024-03-02T03:42:54;9.98;;;0.80;;
77417;SDS011;66490;51.484;0.026;2024-03-02T03:45:40;12.35;;;1.15;;
77417;SDS011;66490;51.484;0.026;2024-03-02T03:48:36;9.63;;;1.05;;
77417;SDS011;66490;51.484;0.026;2024-03-02T03:51:38;10.32;;;1.02;;
77417;SDS011;66490;51.484;0.026;2024-03-02T03:54:27;13.50;;;1.20;;
77417;SDS011;66490;51.484;0.026;2024-03-02T03:57:18;9.23;;;1.20;;
77417;SDS011;66490;51.484;0.026;2024-03-02T04:00:05;7.85;;;0.77;;
77417;SDS011;66490;51.484;0.026;2024-03-02T04:02:49;7.82;;;1.58;;
77417;SDS011;66490;51.484;0.026;2024-03-02T04:05:41;12.45;;;2.03;;
77417;SDS011;66490;51.484;0.026;2024-03-02T04:08:28;14.70;;;1.20;;
77417;SDS011;66490;51.484;0.026;2024-03-02T04:14:49;8.80;;;1.33;;
77417;SDS011;66490;51.484;0.026;2024-03-02T04:17:44;13.40;;;1.45;;
77417;SDS011;66490;51.484;0.026;2024-03-02T04:20:46;10.43;;;1.67;;
77417;SDS011;66490;51.484;0.026;2024-03-02T04:23:30;9.07;;;1.47;;
77417;SDS011;66490;51.484;0.026;2024-03-02T04:26:19;7.53;;;1.98;;
77417;SDS011;66490;51.484;0.026;2024-03-02T04:29:06;9.52;;;1.48;;
77417;SDS011;66490;51.484;0.026;2024-03-02T04:31:53;13.27;;;1.05;;
77417;SDS011;66490;51.484;0.026;2024-03-02T04:38:02;16.67;;;1.93;;
77417;SDS011;66490;51.484;0.026;2024-03-02T04:41:17;13.77;;;1.48;;
77417;SDS011;66490;51.484;0.026;2024-03-02T04:44:15;17.27;;;1.65;;
77417;SDS011;66490;51.484;0.026;2024-03-02T04:47:11;12.05;;;1.45;;
77417;SDS011;66490;51.484;0.026;2024-03-02T04:54:04;10.77;;;1.40;;
77417;SDS011;66490;51.484;0.026;2024-03-02T04:57:32;12.32;;;1.60;;
77417;SDS011;66490;51.484;0.026;2024-03-02T05:00:31;12.30;;;1.45;;
77417;SDS011;66490;51.484;0.026;2024-03-02T05:06:38;13.07;;;1.58;;
77417;SDS011;66490;51.484;0.026;2024-03-02T05:09:59;7.57;;;0.90;;
77417;SDS011;66490;51.484;0.026;2024-03-02T05:12:47;10.15;;;1.33;;
77417;SDS011;66490;51.484;0.026;2024-03-02T05:15:56;7.88;;;1.10;;
77417;SDS011;66490;51.484;0.026;2024-03-02T05:32:57;16.95;;;2.35;;
77417;SDS011;66490;51.484;0.026;2024-03-02T06:15:53;13.38;;;2.45;;
77417;SDS011;66490;51.484;0.026;2024-03-02T06:22:36;14.18;;;2.33;;
77417;SDS011;66490;51.484;0.026;2024-03-02T06:28:46;14.68;;;2.05;;
77417;SDS011;66490;51.484;0.026;2024-03-02T06:31:40;11.70;;;2.20;;
77417;SDS011;66490;51.484;0.026;2024-03-02T06:44:26;10.25;;;1.75;;
77417;SDS011;66490;51.484;0.026;2024-03-02T06:50:25;12.40;;;1.23;;
77417;SDS011;66490;51.484;0.026;2024-03-02T06:53:16;14.23;;;1.55;;
77417;SDS011;66490;51.484;0.026;2024-03-02T08:40:51;9.68;;;1.10;;
77417;SDS011;66490;51.484;0.026;2024-03-02T08:44:00;7.38;;;1.25;;
77417;SDS011;66490;51.484;0.026;2024-03-02T08:46:51;8.05;;;0.95;;
77417;SDS011;66490;51.484;0.026;2024-03-02T08:53:20;9.93;;;1.05;;
77417;SDS011;66490;51.484;0.026;2024-03-02T08:56:45;9.65;;;1.13;;
77417;SDS011;66490;51.484;0.026;2024-03-02T08:59:38;7.32;;;1.20;;
77417;SDS011;66490;51.484;0.026;2024-03-02T09:02:58;6.90;;;1.27;;
77417;SDS011;66490;51.484;0.026;2024-03-02T09:05:54;7.27;;;1.27;;
77417;SDS011;66490;51.484;0.026;2024-03-02T09:11:49;7.28;;;0.95;;
77417;SDS011;66490;51.484;0.026;2024-03-02T09:29:18;4.80;;;0.63;;
77417;SDS011;66490;51.484;0.026;2024-03-02T09:36:28;4.32;;;0.77;;
77417;SDS011;66490;51.484;0.026;2024-03-02T10:22:52;5.15;;;1.10;;
77417;SDS011;66490;51.484;0.026;2024-03-02T10:34:27;8.95;;;1.08;;
77417;SDS011;66490;51.484;0.026;2024-03-02T10:37:11;7.78;;;0.80;;
77417;SDS011;66490;51.484;0.026;2024-03-02T10:40:04;4.07;;;1.13;;
77417;SDS011;66490;51.484;0.026;2024-03-02T10:42:50;2.47;;;0.77;;
77417;SDS011;66490;51.484;0.026;2024-03-02T10:45:40;2.25;;;0.50;;
77417;SDS011;66490;51.484;0.026;2024-03-02T10:48:26;2.83;;;0.52;;
77417;SDS011;66490;51.484;0.026;2024-03-02T10:54:38;4.45;;;1.55;;
77417;SDS011;66490;51.484;0.026;2024-03-02T10:57:23;4.57;;;0.83;;
77417;SDS011;66490;51.484;0.026;2024-03-02T11:00:11;2.05;;;0.40;;
77417;SDS011;66490;51.484;0.026;2024-03-02T11:03:10;3.15;;;0.65;;
77417;SDS011;66490;51.484;0.026;2024-03-02T11:40:13;1.67;;;1.00;;
77417;SDS011;66490;51.484;0.026;2024-03-02T11:43:28;1.77;;;0.40;;
77417;SDS011;66490;51.484;0.026;2024-03-02T12:22:38;1.00;;;0.57;;
77417;SDS011;66490;51.484;0.026;2024-03-02T12:25:24;3.70;;;0.52;;
77417;SDS011;66490;51.484;0.026;2024-03-02T12:28:14;2.65;;;0.70;;
77417;SDS011;66490;51.484;0.026;2024-03-02T12:34:11;1.10;;;0.40;;
77417;SDS011;66490;51.484;0.026;2024-03-02T12:37:19;1.67;;;0.40;;
77417;SDS011;66490;51.484;0.026;2024-03-02T12:40:14;1.38;;;0.30;;
77417;SDS011;66490;51.484;0.026;2024-03-02T12:50:14;2.53;;;0.47;;
77417;SDS011;66490;51.484;0.026;2024-03-02T13:01:37;3.03;;;0.37;;
77417;SDS011;66490;51.484;0.026;2024-03-02T13:04:21;3.40;;;0.60;;
77417;SDS011;66490;51.484;0.026;2024-03-02T13:07:09;3.08;;;0.50;;
77417;SDS011;66490;51.484;0.026;2024-03-02T13:10:05;4.85;;;0.70;;
77417;SDS011;66490;51.484;0.026;2024-03-02T13:12:53;6.03;;;0.70;;
77417;SDS011;66490;51.484;0.026;2024-03-02T13:18:19;3.03;;;0.60;;
77417;SDS011;66490;51.484;0.026;2024-03-02T13:21:04;2.55;;;0.73;;
77417;SDS011;66490;51.484;0.026;2024-03-02T13:23:48;3.90;;;0.52;;
77417;SDS011;66490;51.484;0.026;2024-03-02T13:26:38;3.92;;;1.02;;
77417;SDS011;66490;51.484;0.026;2024-03-02T13:29:33;1.93;;;0.30;;
77417;SDS011;66490;51.484;0.026;2024-03-02T13:32:35;4.05;;;0.65;;
77417;SDS011;66490;51.484;0.026;2024-03-02T13:35:46;1.38;;;0.35;;
77417;SDS011;66490;51.484;0.026;2024-03-02T13:52:28;1.83;;;0.50;;
77417;SDS011;66490;51.484;0.026;2024-03-02T14:38:31;2.25;;;0.60;;
77417;SDS011;66490;51.484;0.026;2024-03-02T14:41:41;2.33;;;0.43;;
77417;SDS011;66490;51.484;0.026;2024-03-02T14:45:02;1.67;;;0.50;;
77417;SDS011;66490;51.484;0.026;2024-03-02T15:30:09;5.93;;;1.60;;
77417;SDS011;66490;51.484;0.026;2024-03-02T15:39:22;6.00;;;0.50;;
77417;SDS011;66490;51.484;0.026;2024-03-02T15:42:12;1.58;;;0.50;;
77417;SDS011;66490;51.484;0.026;2024-03-02T15:45:24;3.17;;;1.20;;
77417;SDS011;66490;51.484;0.026;2024-03-02T15:48:26;1.98;;;0.65;;
77417;SDS011;66490;51.484;0.026;2024-03-02T15:54:41;2.87;;;1.10;;
77417;SDS011;66490;51.484;0.026;2024-03-02T15:57:52;3.10;;;0.98;;
77417;SDS011;66490;51.484;0.026;2024-03-02T16:36:37;3.75;;;1.00;;
77417;SDS011;66490;51.484;0.026;2024-03-02T16:39:39;5.00;;;0.60;;
77417;SDS011;66490;51.484;0.026;2024-03-02T16:42:58;3.45;;;0.52;;
77417;SDS011;66490;51.484;0.026;2024-03-02T16:46:11;7.57;;;0.70;;
77417;SDS011;66490;51.484;0.026;2024-03-02T16:49:27;2.15;;;0.50;;
77417;SDS011;66490;51.484;0.026;2024-03-02T16:52:21;2.58;;;0.68;;
77417;SDS011;66490;51.484;0.026;2024-03-02T16:55:16;2.65;;;0.50;;
77417;SDS011;66490;51.484;0.026;2024-03-02T17:11:47;4.10;;;0.50;;
77417;SDS011;66490;51.484;0.026;2024-03-02T17:14:43;2.72;;;0.93;;
77417;SDS011;66490;51.484;0.026;2024-03-02T17:24:16;1.90;;;0.55;;
77417;SDS011;66490;51.484;0.026;2024-03-02T17:27:17;3.58;;;0.65;;
77417;SDS011;66490;51.484;0.026;2024-03-02T17:30:06;4.65;;;0.73;;
77417;SDS011;66490;51.484;0.026;2024-03-02T17:33:11;4.37;;;0.80;;
77417;SDS011;66490;51.484;0.026;2024-03-02T17:36:05;6.75;;;1.50;;
77417;SDS011;66490;51.484;0.026;2024-03-02T17:38:55;2.97;;;1.30;;
77417;SDS011;66490;51.484;0.026;2024-03-02T17:42:08;4.85;;;1.50;;
77417;SDS011;66490;51.484;0.026;2024-03-02T17:45:12;4.68;;;0.93;;
77417;SDS011;66490;51.484;0.026;2024-03-02T17:48:07;3.43;;;0.97;;
77417;SDS011;66490;51.484;0.026;2024-03-02T17:54:07;4.55;;;1.55;;
77417;SDS011;66490;51.484;0.026;2024-03-02T17:56:51;7.60;;;1.33;;
77417;SDS011;66490;51.484;0.026;2024-03-02T17:59:37;5.03;;;1.55;;
77417;SDS011;66490;51.484;0.026;2024-03-02T18:02:21;4.53;;;0.93;;
77417;SDS011;66490;51.484;0.026;2024-03-02T18:05:05;8.23;;;1.63;;
77417;SDS011;66490;51.484;0.026;2024-03-02T18:07:57;4.60;;;1.92;;
77417;SDS011;66490;51.484;0.026;2024-03-02T18:10:41;6.95;;;1.58;;
77417;SDS011;66490;51.484;0.026;2024-03-02T18:13:31;5.57;;;1.55;;
77417;SDS011;66490;51.484;0.026;2024-03-02T18:16:17;3.83;;;1.60;;
77417;SDS011;66490;51.484;0.026;2024-03-02T18:19:05;3.10;;;0.80;;
77417;SDS011;66490;51.484;0.026;2024-03-02T18:25:18;7.43;;;1.70;;
77417;SDS011;66490;51.484;0.026;2024-03-02T18:28:29;4.10;;;1.65;;
77417;SDS011;66490;51.484;0.026;2024-03-02T18:31:39;4.13;;;1.50;;
77417;SDS011;66490;51.484;0.026;2024-03-02T18:37:46;5.20;;;2.00;;
77417;SDS011;66490;51.484;0.026;2024-03-02T18:40:34;6.95;;;1.88;;
77417;SDS011;66490;51.484;0.026;2024-03-02T18:43:18;7.55;;;2.75;;
77417;SDS011;66490;51.484;0.026;2024-03-02T18:46:06;8.37;;;2.03;;
77417;SDS011;66490;51.484;0.026;2024-03-02T18:48:56;6.50;;;1.65;;
77417;SDS011;66490;51.484;0.026;2024-03-02T18:51:40;6.75;;;2.08;;
77417;SDS011;66490;51.484;0.026;2024-03-02T19:00:53;7.63;;;2.27;;
77417;SDS011;66490;51.484;0.026;2024-03-02T19:03:56;6.40;;;2.90;;
77417;SDS011;66490;51.484;0.026;2024-03-02T19:07:06;8.88;;;3.38;;
77417;SDS011;66490;51.484;0.026;2024-03-02T19:09:57;12.65;;;3.65;;
77417;SDS011;66490;51.484;0.026;2024-03-02T19:13:03;7.55;;;3.30;;
77417;SDS011;66490;51.484;0.026;2024-03-02T19:15:49;7.80;;;2.47;;
77417;SDS011;66490;51.484;0.026;2024-03-02T19:18:36;5.80;;;2.28;;
77417;SDS011;66490;51.484;0.026;2024-03-02T19:21:20;6.97;;;2.50;;
77417;SDS011;66490;51.484;0.026;2024-03-02T19:24:42;9.00;;;3.00;;
77417;SDS011;66490;51.484;0.026;2024-03-02T19:27:35;9.32;;;3.10;;
77417;SDS011;66490;51.484;0.026;2024-03-02T19:40:39;12.25;;;3.70;;
77417;SDS011;66490;51.484;0.026;2024-03-02T19:47:13;8.47;;;2.93;;
77417;SDS011;66490;51.484;0.026;2024-03-02T19:50:35;7.15;;;3.03;;
77417;SDS011;66490;51.484;0.026;2024-03-02T19:57:19;8.85;;;3.10;;
77417;SDS011;66490;51.484;0.026;2024-03-02T20:00:26;11.43;;;4.03;;
77417;SDS011;66490;51.484;0.026;2024-03-02T20:03:22;8.03;;;2.93;;
77417;SDS011;66490;51.484;0.026;2024-03-02T20:06:09;10.30;;;3.58;;
77417;SDS011;66490;51.484;0.026;2024-03-02T20:08:55;12.13;;;4.78;;
77417;SDS011;66490;51.484;0.026;2024-03-02T20:14:55;9.65;;;4.28;;
77417;SDS011;66490;51.484;0.026;2024-03-02T20:17:58;8.23;;;4.10;;
77417;SDS011;66490;51.484;0.026;2024-03-02T20:21:03;11.13;;;4.70;;
77417;SDS011;66490;51.484;0.026;2024-03-02T20:31:06;10.45;;;4.75;;
77417;SDS011;66490;51.484;0.026;2024-03-02T20:33:57;12.60;;;5.30;;
77417;SDS011;66490;51.484;0.026;2024-03-02T20:36:47;14.55;;;5.60;;
77417;SDS011;66490;51.484;0.026;2024-03-02T20:57:07;20.35;;;6.95;;
77417;SDS011;66490;51.484;0.026;2024-03-02T21:00:10;11.70;;;5.22;;
77417;SDS011;66490;51.484;0.026;2024-03-02T21:03:22;13.45;;;4.68;;
77417;SDS011;66490;51.484;0.026;2024-03-02T22:06:06;9.40;;;3.47;;
77417;SDS011;66490;51.484;0.026;2024-03-02T22:19:56;10.07;;;3.55;;
77417;SDS011;66490;51.484;0.026;2024-03-02T22:26:24;10.10;;;4.10;;
77417;SDS011;66490;51.484;0.026;2024-03-02T22:29:51;7.05;;;3.88;;
77417;SDS011;66490;51.484;0.026;2024-03-02T22:43:17;11.80;;;4.15;;
77417;SDS011;66490;51.484;0.026;2024-03-02T22:49:58;8.63;;;3.80;;
77417;SDS011;66490;51.484;0.026;2024-03-02T22:52:45;10.40;;;4.28;;
77417;SDS011;66490;51.484;0.026;2024-03-02T22:55:36;10.77;;;4.15;;
77417;SDS011;66490;51.484;0.026;2024-03-02T22:58:25;10.45;;;4.20;;
77417;SDS011;66490;51.484;0.026;2024-03-02T23:01:14;8.43;;;4.00;;
77417;SDS011;66490;51.484;0.026;2024-03-02T23:04:05;8.33;;;2.83;;
77417;SDS011;66490;51.484;0.026;2024-03-02T23:07:11;9.30;;;2.92;;
77417;SDS011;66490;51.484;0.026;2024-03-02T23:09:58;11.35;;;4.53;;
77417;SDS011;66490;51.484;0.026;2024-03-02T23:12:58;8.95;;;3.65;;
77417;SDS011;66490;51.484;0.026;2024-03-02T23:15:45;8.85;;;3.90;;
77417;SDS011;66490;51.484;0.026;2024-03-02T23:18:37;11.70;;;3.87;;
77417;SDS011;66490;51.484;0.026;2024-03-02T23:21:20;10.60;;;4.10;;
77417;SDS011;66490;51.484;0.026;2024-03-02T23:52:30;10.95;;;4.70;;
